Time;durP1;ratioP1;P1;durP2;ratioP2;P2;SDS_P1;SDS_P2;PMS_P1;PMS_P2;Temp;Humidity;BMP_temperature;BMP_pressure;BME280_temperature;BME280_humidity;BME280_pressure;Samples;Min_cycle;Max_cycle;Signal;HPM_P1;HPM_P2
2022/02/19 00:01:51;;;;;;;11.20;3.07;;;6.50;99.90;;;7.07;81.98;97513.31;5039974;28;20490;-76
2022/02/19 00:04:20;;;;;;;10.13;2.40;;;6.50;99.90;;;7.08;82.46;97519.28;5040554;28;20481;-76
2022/02/19 00:06:50;;;;;;;8.53;1.87;;;6.60;99.90;;;7.11;83.09;97518.97;5033919;28;20468;-76
2022/02/19 00:09:19;;;;;;;7.40;2.57;;;6.60;99.90;;;7.14;84.40;97505.59;5034634;28;20465;-76
2022/02/19 00:11:50;;;;;;;11.30;2.23;;;6.60;99.90;;;7.12;83.12;97515.34;5035257;28;20831;-76
2022/02/19 00:14:20;;;;;;;7.90;2.10;;;6.60;99.90;;;7.07;82.93;97512.50;5035030;28;20469;-76
2022/02/19 00:16:51;;;;;;;11.63;2.00;;;6.50;99.90;;;7.08;82.25;97511.50;5035474;28;20473;-76
2022/02/19 00:19:21;;;;;;;9.93;2.30;;;6.60;99.90;;;7.05;81.88;97504.06;5037173;28;20557;-76
2022/02/19 00:21:51;;;;;;;11.60;2.23;;;6.60;99.90;;;7.06;83.35;97514.28;5038095;28;20460;-76
2022/02/19 00:24:20;;;;;;;18.67;2.37;;;6.60;99.90;;;7.05;83.33;97509.25;5034460;28;20553;-76
2022/02/19 00:26:49;;;;;;;4.90;1.87;;;6.50;99.90;;;6.96;81.13;97512.94;5034787;28;20458;-76
2022/02/19 00:29:20;;;;;;;7.40;2.60;;;6.40;99.70;;;6.91;80.70;97508.25;5033918;28;20816;-76
2022/02/19 00:31:52;;;;;;;6.50;1.80;;;6.40;99.70;;;6.87;82.05;97535.56;5033286;28;20826;-76
2022/02/19 00:34:21;;;;;;;6.27;2.70;;;6.30;99.90;;;6.86;82.56;97553.94;5035514;28;20461;-76
2022/02/19 00:36:51;;;;;;;5.03;1.30;;;6.30;99.90;;;6.83;82.19;97529.13;5033446;28;20472;-76
2022/02/19 00:39:21;;;;;;;12.63;2.80;;;6.20;99.90;;;6.86;80.82;97543.56;5035268;28;20467;-76
2022/02/19 00:41:50;;;;;;;4.87;1.60;;;6.30;99.70;;;6.78;81.77;97539.22;5034699;28;20497;-76
2022/02/19 00:44:21;;;;;;;10.60;2.20;;;6.20;99.90;;;6.77;81.27;97540.22;5031782;28;20527;-76
2022/02/19 00:46:53;;;;;;;6.60;2.23;;;6.30;99.90;;;6.75;81.86;97549.97;5033098;28;20469;-76
2022/02/19 00:49:23;;;;;;;14.07;2.50;;;6.20;99.90;;;6.80;81.46;97559.84;5035620;28;20464;-76
2022/02/19 00:51:53;;;;;;;7.67;2.17;;;6.30;99.90;;;6.76;80.64;97553.38;5031816;28;20904;-76
2022/02/19 00:54:22;;;;;;;13.63;2.13;;;6.20;99.70;;;6.73;80.03;97564.13;5034424;28;20522;-76
2022/02/19 00:56:52;;;;;;;6.17;2.40;;;6.20;99.50;;;6.74;80.83;97582.13;5032304;28;20522;-76
2022/02/19 00:59:26;;;;;;;7.33;2.50;;;6.20;99.60;;;6.73;80.55;97583.13;5035447;28;20465;-76
2022/02/19 01:01:57;;;;;;;8.00;2.30;;;6.20;99.80;;;6.74;80.08;97578.72;5034061;28;20489;-76
2022/02/19 01:04:27;;;;;;;19.20;2.77;;;6.10;99.50;;;6.77;79.46;97586.97;5035879;28;20861;-76
2022/02/19 01:06:57;;;;;;;15.43;2.17;;;6.20;99.50;;;6.73;79.22;97587.53;5033291;28;20473;-76
2022/02/19 01:09:27;;;;;;;10.43;2.40;;;6.20;99.40;;;6.73;78.29;97592.72;5034394;28;20465;-76
2022/02/19 01:11:58;;;;;;;9.57;2.00;;;6.20;99.20;;;6.74;78.87;97589.94;5033631;28;20828;-76
2022/02/19 01:14:28;;;;;;;3.83;1.40;;;6.20;99.30;;;6.71;78.75;97594.66;5035239;28;20865;-76
2022/02/19 01:16:59;;;;;;;12.60;3.07;;;6.20;99.10;;;6.66;79.23;97584.00;5035365;28;20921;-77
2022/02/19 01:19:29;;;;;;;11.43;2.13;;;6.10;99.30;;;6.65;79.58;97605.75;5036184;28;20464;-76
2022/02/19 01:22:00;;;;;;;17.90;2.13;;;6.10;99.40;;;6.69;79.61;97592.25;5037620;28;20441;-76
2022/02/19 01:24:31;;;;;;;8.30;1.87;;;6.20;99.60;;;6.69;80.24;97591.44;5037198;28;21057;-77
2022/02/19 01:26:59;;;;;;;12.80;2.33;;;6.20;99.50;;;6.68;79.95;97592.41;5037510;28;20481;-76
2022/02/19 01:29:29;;;;;;;11.43;1.90;;;6.20;99.60;;;6.66;79.34;97602.19;5037302;28;20455;-76
2022/02/19 01:32:01;;;;;;;4.70;1.83;;;6.10;99.20;;;6.66;78.92;97589.19;5035941;28;20465;-77
2022/02/19 01:34:31;;;;;;;9.97;1.97;;;6.10;99.20;;;6.59;79.29;97586.47;5036615;28;20458;-76
2022/02/19 01:37:00;;;;;;;10.97;2.27;;;6.10;99.20;;;6.59;79.67;97608.03;5037224;28;20473;-77
2022/02/19 01:39:30;;;;;;;9.80;3.07;;;6.10;99.30;;;6.56;80.04;97603.19;5033495;28;21257;-76
2022/02/19 01:42:00;;;;;;;11.57;2.37;;;6.10;99.50;;;6.56;79.36;97618.78;5032860;28;20839;-76
2022/02/19 01:44:37;;;;;;;14.13;2.10;;;6.00;99.30;;;6.55;79.61;97601.59;5032592;28;21031;-76
2022/02/19 01:47:08;;;;;;;9.13;2.13;;;6.00;99.30;;;6.58;79.25;97606.44;5035713;28;20578;-76
2022/02/19 01:49:37;;;;;;;8.90;2.00;;;6.10;99.40;;;6.54;79.62;97612.16;5034290;28;20854;-76
2022/02/19 01:52:10;;;;;;;7.13;1.87;;;6.00;99.30;;;6.50;80.49;97608.28;5033378;28;20462;-77
2022/02/19 01:54:40;;;;;;;9.97;2.40;;;6.00;99.50;;;6.51;80.62;97600.31;5034630;28;20462;-76
2022/02/19 01:57:10;;;;;;;12.70;1.90;;;6.00;99.50;;;6.57;79.90;97615.22;5029145;28;20537;-76
2022/02/19 01:59:43;;;;;;;7.77;1.90;;;6.10;99.50;;;6.54;79.97;97612.16;5032085;28;20538;-76
2022/02/19 02:02:14;;;;;;;4.60;1.70;;;6.00;99.30;;;6.58;80.13;97622.03;5029653;28;20593;-76
2022/02/19 02:04:44;;;;;;;6.20;1.90;;;6.10;99.60;;;6.58;81.15;97606.44;5035297;28;20981;-76
2022/02/19 02:07:15;;;;;;;9.70;2.00;;;6.10;99.90;;;6.61;82.70;97614.88;5036507;28;20484;-77
2022/02/19 02:09:46;;;;;;;9.43;2.40;;;6.10;99.90;;;6.56;83.10;97629.19;5034084;28;20465;-76
2022/02/19 02:12:18;;;;;;;13.50;2.80;;;6.00;99.90;;;6.59;83.03;97623.63;5034751;28;20467;-76
2022/02/19 02:14:50;;;;;;;7.03;1.80;;;6.10;99.90;;;6.61;83.95;97625.25;5037616;28;20497;-77
2022/02/19 02:17:22;;;;;;;7.73;3.40;;;6.10;99.90;;;6.58;84.41;97627.22;5032958;28;20565;-76
2022/02/19 02:19:53;;;;;;;14.00;2.13;;;6.00;99.90;;;6.58;83.24;97616.84;5033297;28;20465;-76
2022/02/19 02:22:25;;;;;;;14.30;2.87;;;6.10;99.90;;;6.51;83.40;97628.91;5032943;28;20465;-76
2022/02/19 02:24:56;;;;;;;7.70;2.17;;;6.00;99.90;;;6.47;84.35;97617.22;5028310;28;20502;-77
2022/02/19 02:27:25;;;;;;;9.13;2.20;;;5.90;99.90;;;6.44;84.86;97632.34;5033335;28;20462;-76
2022/02/19 02:29:55;;;;;;;5.73;2.67;;;5.90;99.90;;;6.38;85.13;97625.25;5032051;28;20557;-76
2022/02/19 02:32:26;;;;;;;4.20;1.50;;;5.80;99.90;;;6.36;85.90;97602.03;5032392;28;20470;-76
2022/02/19 02:34:57;;;;;;;6.73;2.33;;;5.90;99.90;;;6.32;86.10;97638.88;5032733;28;20475;-77
2022/02/19 02:37:29;;;;;;;5.13;1.90;;;5.80;99.90;;;6.28;87.10;97653.22;5031982;28;20466;-76
2022/02/19 02:40:00;;;;;;;21.17;1.73;;;5.80;99.90;;;6.27;88.54;97636.81;5032314;28;20461;-76
2022/02/19 02:42:31;;;;;;;11.93;2.83;;;5.80;99.90;;;6.23;89.27;97647.72;5033355;28;20954;-76
2022/02/19 02:45:01;;;;;;;4.27;1.73;;;5.70;99.90;;;6.24;88.67;97662.31;5032717;28;20497;-76
2022/02/19 02:47:51;;;;;;;8.73;2.10;;;5.70;99.90;;;6.23;87.66;97661.50;5035100;28;20463;-76
2022/02/19 02:50:22;;;;;;;8.10;2.30;;;5.70;99.90;;;6.24;88.38;97670.91;5033746;28;20482;-76
2022/02/19 02:52:52;;;;;;;1.67;1.10;;;5.70;99.90;;;6.20;88.83;97663.63;5033095;28;20485;-76
2022/02/19 02:55:22;;;;;;;8.00;1.90;;;5.70;99.90;;;6.20;91.88;97682.59;5032535;28;20461;-76
2022/02/19 02:57:51;;;;;;;2.20;1.37;;;5.70;99.90;;;6.16;94.04;97703.88;5032534;28;20512;-76
2022/02/19 03:00:20;;;;;;;7.30;1.87;;;5.60;99.90;;;6.16;94.24;97693.50;5032850;28;20894;-76
2022/02/19 03:02:50;;;;;;;10.13;2.27;;;5.60;99.90;;;6.16;94.89;97693.50;5032719;28;20488;-76
2022/02/19 03:05:21;;;;;;;3.13;1.50;;;5.70;99.90;;;6.13;96.14;97689.44;5033787;28;20986;-76
2022/02/19 03:07:52;;;;;;;6.00;2.20;;;5.70;99.90;;;6.07;95.46;97696.09;5032685;28;20465;-76
2022/02/19 03:10:23;;;;;;;6.47;2.03;;;5.50;99.90;;;6.06;93.73;97698.88;5033165;28;20815;-77
2022/02/19 03:12:53;;;;;;;5.47;1.90;;;5.50;99.90;;;6.09;94.30;97701.13;5033671;28;20482;-77
2022/02/19 03:15:22;;;;;;;7.63;1.70;;;5.60;99.90;;;6.03;92.96;97704.41;5030133;28;20565;-76
2022/02/19 03:17:52;;;;;;;9.20;1.43;;;5.50;99.90;;;5.97;92.13;97712.88;5032474;28;20466;-76
2022/02/19 03:20:24;;;;;;;12.33;1.73;;;5.40;99.90;;;5.95;92.89;97717.41;5030285;28;20683;-77
2022/02/19 03:22:56;;;;;;;8.27;1.60;;;5.40;99.90;;;5.95;93.23;97714.78;5031663;28;20888;-76
2022/02/19 03:25:25;;;;;;;9.93;2.23;;;5.40;99.90;;;5.92;92.91;97717.72;5030708;28;20554;-76
2022/02/19 03:27:57;;;;;;;8.73;2.23;;;5.30;99.90;;;5.95;92.13;97723.41;5030602;28;20473;-76
2022/02/19 03:30:26;;;;;;;10.00;2.90;;;5.40;99.90;;;5.93;92.38;97720.16;5032659;28;20460;-76
2022/02/19 03:32:56;;;;;;;8.13;1.67;;;5.40;99.90;;;5.95;92.25;97717.41;5032293;28;20502;-77
2022/02/19 03:35:27;;;;;;;6.23;2.13;;;5.40;99.90;;;5.89;93.01;97733.63;5030361;28;20559;-76
2022/02/19 03:37:59;;;;;;;8.80;1.60;;;5.40;99.90;;;5.81;93.18;97724.03;5031654;28;20471;-76
2022/02/19 03:40:29;;;;;;;6.50;1.60;;;5.30;99.90;;;5.78;93.30;97728.75;5034013;28;20465;-76
2022/02/19 03:43:01;;;;;;;9.03;2.03;;;5.20;99.90;;;5.83;92.90;97737.66;5032341;28;20470;-76
2022/02/19 03:45:35;;;;;;;3.40;1.20;;;5.30;99.90;;;5.81;92.37;97736.19;5030267;28;20504;-76
2022/02/19 03:48:06;;;;;;;4.50;1.50;;;5.30;99.90;;;5.79;91.84;97744.16;5031930;28;20472;-76
2022/02/19 03:50:35;;;;;;;9.27;1.80;;;5.30;99.90;;;5.77;91.09;97758.25;5029950;28;20846;-76
2022/02/19 03:53:08;;;;;;;7.50;1.77;;;5.20;99.90;;;5.75;90.90;97763.63;5032937;28;20548;-76
2022/02/19 03:55:38;;;;;;;9.37;2.70;;;5.20;99.90;;;5.76;91.83;97777.41;5028476;28;20467;-76
2022/02/19 03:58:07;;;;;;;8.43;1.50;;;5.20;99.90;;;5.77;90.82;97773.81;5027447;28;20539;-76
2022/02/19 04:00:37;;;;;;;7.77;2.20;;;5.20;99.90;;;5.72;91.05;97783.88;5031179;28;20500;-77
2022/02/19 04:03:09;;;;;;;9.20;1.80;;;5.30;99.90;;;5.70;90.88;97793.59;5032284;28;20488;-76
2022/02/19 04:05:39;;;;;;;6.30;1.87;;;5.10;99.90;;;5.75;90.91;97791.34;5029653;28;21102;-76
2022/02/19 04:08:11;;;;;;;2.60;1.40;;;5.20;99.90;;;5.72;91.90;97786.47;5033365;28;20518;-76
2022/02/19 04:10:43;;;;;;;7.73;1.63;;;5.20;99.90;;;5.65;92.10;97804.47;5031183;28;20465;-77
2022/02/19 04:13:13;;;;;;;13.00;2.43;;;5.10;99.90;;;5.63;92.61;97800.41;5032225;28;20618;-76
2022/02/19 04:15:43;;;;;;;5.53;2.03;;;5.10;99.90;;;5.63;92.93;97810.78;5029367;28;20451;-76
2022/02/19 04:18:13;;;;;;;13.33;2.50;;;5.10;99.90;;;5.66;93.70;97810.47;5028734;28;21024;-76
2022/02/19 04:20:43;;;;;;;7.73;2.00;;;5.10;99.90;;;5.61;94.04;97833.47;5028700;28;20460;-76
2022/02/19 04:23:14;;;;;;;7.17;1.93;;;5.00;99.90;;;5.63;94.24;97828.94;5033111;28;20980;-76
2022/02/19 04:25:44;;;;;;;8.50;1.50;;;5.00;99.90;;;5.66;94.97;97833.81;5034308;28;20490;-77
2022/02/19 04:28:16;;;;;;;4.23;1.77;;;5.10;99.90;;;5.65;94.75;97834.78;5030348;28;20467;-76
2022/02/19 04:30:47;;;;;;;8.57;1.77;;;5.10;99.90;;;5.65;95.80;97845.16;5034696;28;20467;-76
2022/02/19 04:33:16;;;;;;;8.60;1.60;;;5.10;99.90;;;5.67;95.16;97849.22;5032224;28;20824;-72
2022/02/19 04:35:46;;;;;;;8.73;4.67;;;5.20;99.90;;;5.62;95.65;97858.44;5036594;28;21460;-77
2022/02/19 04:38:19;;;;;;;15.73;2.00;;;5.20;99.90;;;5.56;95.06;97849.50;5034770;28;20544;-77
2022/02/19 04:40:51;;;;;;;11.27;3.40;;;5.10;99.90;;;5.52;95.08;97861.97;5034518;28;20944;-76
2022/02/19 04:43:21;;;;;;;16.83;1.83;;;5.10;99.90;;;5.53;95.36;97862.81;5036483;28;20452;-76
2022/02/19 04:45:51;;;;;;;14.57;2.27;;;5.00;99.90;;;5.56;95.58;97863.28;5032055;28;21031;-76
2022/02/19 04:48:21;;;;;;;65.57;22.50;;;5.10;99.90;;;5.48;96.71;97868.47;5039837;28;20513;-87
2022/02/19 04:50:50;;;;;;;9.87;1.67;;;5.00;99.90;;;5.49;96.96;97872.69;5033610;28;20578;-77
2022/02/19 04:53:22;;;;;;;10.93;2.13;;;4.90;99.90;;;5.51;95.84;97875.13;5037117;28;20476;-76
2022/02/19 04:55:51;;;;;;;6.83;1.60;;;5.00;99.90;;;5.55;96.22;97874.63;5030745;28;20865;-76
2022/02/19 04:58:22;;;;;;;6.17;1.70;;;5.00;99.90;;;5.58;95.55;97874.34;5035917;28;20465;-82
2022/02/19 05:00:51;;;;;;;12.33;2.27;;;5.10;99.90;;;5.56;98.25;97875.44;5016313;28;20505;-77
2022/02/19 05:03:22;;;;;;;4.47;1.50;;;5.10;99.90;;;5.54;97.88;97875.63;5034041;28;20452;-76
2022/02/19 05:05:52;;;;;;;12.80;1.90;;;5.10;99.90;;;5.55;97.24;97887.59;5035627;28;20492;-76
2022/02/19 05:08:24;;;;;;;4.73;1.77;;;5.00;99.90;;;5.52;97.56;97887.09;5037512;28;20465;-76
2022/02/19 05:10:54;;;;;;;9.27;1.80;;;5.10;99.90;;;5.49;97.19;97903.78;5037585;28;20516;-76
2022/02/19 05:13:24;;;;;;;4.00;1.83;;;5.00;99.90;;;5.48;97.28;97909.94;5037507;28;20811;-76
2022/02/19 05:15:53;;;;;;;3.27;1.40;;;5.00;99.90;;;5.48;96.74;97917.72;5036727;28;20459;-76
2022/02/19 05:18:24;;;;;;;41.47;17.70;;;5.00;99.90;;;5.50;97.44;97915.81;5041288;28;20492;-78
2022/02/19 05:20:54;;;;;;;10.03;2.43;;;5.00;99.90;;;5.52;97.89;97921.63;5034180;28;20866;-76
2022/02/19 05:23:27;;;;;;;75.90;37.33;;;5.10;99.90;;;5.52;98.31;97908.66;5032792;28;20471;-84
2022/02/19 05:25:56;;;;;;;9.63;1.90;;;5.00;99.90;;;5.51;96.76;97919.22;5033065;28;20591;-75
2022/02/19 05:28:26;;;;;;;8.53;1.90;;;5.00;99.90;;;5.48;97.86;97922.13;5035534;28;20456;-75
2022/02/19 05:30:57;;;;;;;4.57;1.57;;;5.00;99.90;;;5.42;97.60;97925.31;5035857;28;20521;-75
2022/02/19 05:33:27;;;;;;;7.50;1.70;;;4.90;99.90;;;5.41;97.32;97932.31;5037209;28;20464;-75
2022/02/19 05:35:56;;;;;;;10.70;1.60;;;4.90;99.90;;;5.43;97.50;97940.75;5035693;28;20920;-74
2022/02/19 05:38:26;;;;;;;4.77;1.47;;;5.00;99.90;;;5.39;97.78;97934.25;5039345;28;20833;-75
2022/02/19 05:40:56;;;;;;;4.93;1.90;;;4.90;99.90;;;5.38;97.67;97939.59;5039796;28;20587;-75
2022/02/19 05:43:25;;;;;;;8.10;2.13;;;4.90;99.90;;;5.39;97.68;97936.84;5037592;28;20452;-75
2022/02/19 05:45:56;;;;;;;7.77;2.00;;;4.90;99.90;;;5.35;97.42;97943.28;5035829;28;20503;-75
2022/02/19 05:48:26;;;;;;;6.43;2.00;;;4.80;99.90;;;5.36;98.46;97955.28;5035620;28;20449;-74
2022/02/19 05:50:56;;;;;;;5.13;1.40;;;4.70;99.90;;;5.30;98.63;97955.94;5037260;28;20468;-75
2022/02/19 05:53:26;;;;;;;4.50;1.63;;;4.80;99.90;;;5.25;96.78;97955.56;5037627;28;20791;-75
2022/02/19 05:55:57;;;;;;;7.20;2.00;;;4.70;99.90;;;5.20;96.55;97969.97;5037537;28;20484;-74
2022/02/19 05:58:27;;;;;;;14.00;1.80;;;4.70;99.90;;;5.17;96.23;97963.31;5034026;28;20457;-75
2022/02/19 06:00:58;;;;;;;5.43;1.53;;;4.80;99.90;;;5.20;97.56;97975.16;5035967;28;20490;-75
2022/02/19 06:03:28;;;;;;;5.50;1.90;;;4.70;99.90;;;5.24;97.57;97973.88;5036021;28;20497;-75
2022/02/19 06:05:58;;;;;;;8.80;1.90;;;4.70;99.90;;;5.23;98.35;97980.03;5036956;28;20445;-75
2022/02/19 06:08:30;;;;;;;9.10;1.40;;;4.70;99.90;;;5.17;98.30;97985.84;5037187;28;20443;-75
2022/02/19 06:10:59;;;;;;;4.17;1.53;;;4.70;99.90;;;5.17;99.21;97997.03;5036429;28;20459;-75
2022/02/19 06:13:29;;;;;;;5.67;2.03;;;4.60;99.90;;;5.19;99.40;97997.66;5038565;28;20450;-75
2022/02/19 06:16:00;;;;;;;4.33;1.40;;;4.60;99.90;;;5.13;100.00;97995.69;5036593;28;20946;-75
2022/02/19 06:18:30;;;;;;;3.50;1.60;;;4.60;99.90;;;5.07;97.36;98004.06;5038161;28;20461;-75
2022/02/19 06:21:00;;;;;;;9.33;2.10;;;4.60;99.90;;;5.10;98.18;98006.38;5041115;28;20445;-75
2022/02/19 06:23:32;;;;;;;10.80;1.67;;;4.60;99.90;;;5.05;97.37;98003.41;5037495;28;20860;-75
2022/02/19 06:26:01;;;;;;;5.70;1.60;;;4.50;99.90;;;5.03;97.97;98006.16;5039230;28;20484;-75
2022/02/19 06:28:35;;;;;;;10.83;2.07;;;4.50;99.90;;;5.06;98.78;98015.41;5039787;28;20875;-75
2022/02/19 06:31:05;;;;;;;5.70;1.53;;;4.60;99.90;;;5.03;98.35;98013.91;5039803;28;20956;-74
2022/02/19 06:33:34;;;;;;;6.83;1.40;;;4.60;99.90;;;5.02;98.80;98021.88;5039927;28;20845;-74
2022/02/19 06:36:04;;;;;;;2.80;1.53;;;4.50;99.90;;;4.95;98.40;98029.44;5039774;28;20876;-75
2022/02/19 06:38:39;;;;;;;6.87;1.40;;;4.50;99.90;;;4.90;98.34;98030.84;5038628;28;21317;-75
2022/02/19 06:41:10;;;;;;;4.10;1.63;;;4.40;99.90;;;4.87;98.31;98039.72;5038808;28;20453;-75
2022/02/19 06:43:40;;;;;;;9.03;1.53;;;4.40;99.90;;;4.90;98.67;98048.97;5038900;28;20459;-75
2022/02/19 06:46:09;;;;;;;5.30;1.50;;;4.40;99.90;;;4.91;99.78;98054.03;5037727;28;20438;-75
2022/02/19 06:48:38;;;;;;;10.80;2.33;;;4.40;99.90;;;4.89;99.22;98055.97;5036173;28;20495;-75
2022/02/19 06:51:08;;;;;;;7.57;1.90;;;4.40;99.90;;;4.91;99.29;98071.34;5039073;28;20473;-75
2022/02/19 06:53:41;;;;;;;5.33;2.00;;;4.40;99.90;;;4.83;99.36;98077.25;5038439;28;20460;-75
2022/02/19 06:56:11;;;;;;;6.37;2.00;;;4.30;99.90;;;4.82;100.00;98080.84;5039238;28;20448;-75
2022/02/19 06:58:41;;;;;;;9.63;1.50;;;4.30;99.90;;;4.87;99.54;98082.97;5035360;28;20457;-75
2022/02/19 07:01:12;;;;;;;4.17;1.80;;;4.30;99.90;;;4.86;99.81;98099.47;5039531;28;20482;-74
2022/02/19 07:03:42;;;;;;;10.47;2.47;;;4.40;99.90;;;4.81;99.55;98109.47;5039364;28;20463;-75
2022/02/19 07:06:10;;;;;;;8.83;2.40;;;4.30;99.90;;;4.75;99.90;98105.72;5038784;28;20868;-74
2022/02/19 07:08:42;;;;;;;8.40;1.60;;;4.30;99.90;;;4.73;100.00;98114.56;5038116;28;21096;-75
2022/02/19 07:11:16;;;;;;;8.53;2.03;;;4.20;99.90;;;4.81;100.00;98109.47;5038314;28;20456;-75
2022/02/19 07:13:45;;;;;;;4.90;1.77;;;4.30;99.90;;;4.82;100.00;98113.69;5038068;28;20518;-75
2022/02/19 07:16:14;;;;;;;6.40;1.90;;;4.30;99.90;;;4.82;100.00;98113.69;5039406;28;20455;-75
2022/02/19 07:18:44;;;;;;;6.73;1.57;;;4.30;99.90;;;4.84;100.00;98128.13;5036373;28;20484;-74
2022/02/19 07:21:14;;;;;;;3.83;1.67;;;4.30;99.90;;;4.86;100.00;98120.22;5039266;28;20454;-75
2022/02/19 07:23:44;;;;;;;8.20;1.97;;;4.40;99.90;;;4.81;100.00;98132.78;5039944;28;20925;-75
2022/02/19 07:26:14;;;;;;;9.50;1.93;;;4.30;99.90;;;4.82;100.00;98134.41;5039734;28;20503;-75
2022/02/19 07:28:45;;;;;;;11.73;2.23;;;4.20;99.90;;;4.82;100.00;98137.00;5038849;28;20511;-75
2022/02/19 07:31:15;;;;;;;9.17;1.53;;;4.20;99.90;;;4.88;100.00;98146.75;5039323;28;20470;-75
2022/02/19 07:33:45;;;;;;;7.80;1.80;;;4.30;99.90;;;4.90;100.00;98144.81;5037921;28;20814;-75
2022/02/19 07:36:15;;;;;;;7.17;2.37;;;4.30;99.90;;;4.92;100.00;98154.09;5032934;28;20559;-75
2022/02/19 07:38:45;;;;;;;11.43;1.60;;;4.40;99.90;;;4.88;100.00;98147.59;5037862;28;20872;-75
2022/02/19 07:41:14;;;;;;;4.50;1.93;;;4.30;99.90;;;4.88;100.00;98151.94;5035528;28;20472;-74
2022/02/19 07:43:45;;;;;;;15.93;1.60;;;4.30;99.90;;;4.93;100.00;98160.06;5035298;28;20462;-74
2022/02/19 07:46:14;;;;;;;4.93;1.30;;;4.30;99.90;;;4.92;100.00;98167.06;5033499;28;20500;-75
2022/02/19 07:48:45;;;;;;;13.80;2.83;;;4.30;99.90;;;4.97;100.00;98171.78;5035161;28;20582;-74
2022/02/19 07:59:46;;;;;;;19.27;2.33;;;4.30;99.90;;;4.97;100.00;98195.09;5000310;28;20510;-75
2022/02/19 08:02:16;;;;;;;4.13;1.70;;;4.30;99.90;;;5.03;100.00;98205.66;5032949;28;20507;-74
2022/02/19 08:04:48;;;;;;;5.40;1.57;;;4.40;99.90;;;5.06;100.00;98212.34;5037784;28;20470;-75
2022/02/19 08:07:18;;;;;;;12.43;2.67;;;4.40;99.90;;;5.12;100.00;98210.94;5038556;28;20485;-75
2022/02/19 08:09:49;;;;;;;7.23;1.70;;;4.50;99.90;;;5.19;100.00;98212.78;5040086;28;20993;-75
2022/02/19 08:12:19;;;;;;;8.77;2.00;;;4.70;99.90;;;5.19;100.00;98211.97;5041213;28;21074;-75
2022/02/19 08:14:49;;;;;;;5.00;1.63;;;4.60;99.90;;;5.21;100.00;98225.59;5040367;28;20590;-75
2022/02/19 08:17:19;;;;;;;8.20;2.30;;;4.50;99.90;;;5.20;100.00;98229.16;5042671;28;20540;-75
2022/02/19 08:19:49;;;;;;;11.07;1.77;;;4.60;99.90;;;5.21;100.00;98226.41;5042632;28;20478;-75
2022/02/19 08:22:19;;;;;;;16.23;2.07;;;4.70;99.90;;;5.22;100.00;98232.41;5042446;28;20567;-74
2022/02/19 08:24:50;;;;;;;9.40;1.73;;;4.70;99.90;;;5.17;100.00;98238.06;5041503;28;20542;-75
2022/02/19 08:27:21;;;;;;;11.57;2.50;;;4.70;99.90;;;5.11;100.00;98243.81;5042213;28;20445;-75
2022/02/19 08:29:52;;;;;;;10.53;1.90;;;4.60;99.90;;;5.11;100.00;98250.75;5040769;28;20463;-74
2022/02/19 08:32:23;;;;;;;8.17;2.00;;;4.50;99.90;;;5.17;100.00;98248.44;5041878;28;20462;-75
2022/02/19 08:34:55;;;;;;;10.50;1.57;;;4.60;99.90;;;5.19;100.00;98254.25;5041005;28;20457;-76
2022/02/19 08:37:24;;;;;;;6.90;1.87;;;4.50;99.90;;;5.26;100.00;98260.47;5039311;28;20456;-74
2022/02/19 08:39:56;;;;;;;5.73;1.77;;;4.70;99.90;;;5.27;100.00;98256.13;5040545;28;20964;-75
2022/02/19 08:42:26;;;;;;;5.90;1.77;;;4.80;99.90;;;5.27;100.00;98266.50;5040738;28;20465;-75
2022/02/19 08:44:56;;;;;;;5.77;1.70;;;4.70;99.90;;;5.20;100.00;98270.63;5041219;28;20453;-75
2022/02/19 08:47:25;;;;;;;8.73;2.10;;;4.70;99.90;;;5.25;100.00;98279.59;5041836;28;20485;-75
2022/02/19 08:49:55;;;;;;;8.53;2.20;;;4.70;99.90;;;5.24;100.00;98277.94;5041402;28;20468;-75
2022/02/19 08:52:27;;;;;;;7.60;1.60;;;4.60;99.90;;;5.30;100.00;98279.97;5040601;28;20457;-75
2022/02/19 08:54:57;;;;;;;7.90;2.37;;;4.80;99.90;;;5.26;100.00;98289.00;5041124;28;20449;-75
2022/02/19 08:57:27;;;;;;;14.20;2.20;;;4.70;99.90;;;5.27;100.00;98285.47;5038318;28;20545;-75
2022/02/19 08:59:57;;;;;;;10.63;1.80;;;4.70;99.90;;;5.33;100.00;98286.63;5037270;28;20510;-75
2022/02/19 09:02:26;;;;;;;9.60;2.43;;;4.80;99.90;;;5.35;100.00;98289.88;5041243;28;20480;-74
2022/02/19 09:04:56;;;;;;;11.37;2.20;;;4.80;99.90;;;5.43;100.00;98302.94;5039390;28;21106;-75
2022/02/19 09:07:28;;;;;;;5.20;2.33;;;4.90;99.90;;;5.50;100.00;98306.56;5040094;28;20800;-75
2022/02/19 09:09:59;;;;;;;6.00;1.53;;;5.00;99.90;;;5.48;100.00;98296.31;5039736;28;20478;-75
2022/02/19 09:12:29;;;;;;;10.10;2.27;;;5.00;99.90;;;5.47;100.00;98302.50;5041826;28;20451;-75
2022/02/19 09:14:59;;;;;;;10.67;2.73;;;5.00;99.90;;;5.49;100.00;98290.19;5040167;28;20454;-75
2022/02/19 09:17:29;;;;;;;9.47;2.20;;;5.00;99.90;;;5.42;100.00;98291.72;5041114;28;20452;-75
2022/02/19 09:19:58;;;;;;;16.10;2.40;;;4.90;99.90;;;5.41;100.00;98290.13;5041073;28;21074;-75
2022/02/19 09:22:28;;;;;;;9.20;2.83;;;4.90;99.90;;;5.35;100.00;98285.50;5042914;28;20446;-74
2022/02/19 09:25:01;;;;;;;6.60;2.07;;;4.80;99.90;;;5.42;100.00;98294.31;5036847;28;20465;-75
2022/02/19 09:27:31;;;;;;;4.50;1.53;;;4.90;99.90;;;5.50;100.00;98294.41;5038921;28;20452;-75
2022/02/19 09:30:01;;;;;;;5.70;1.70;;;5.00;99.90;;;5.54;100.00;98285.38;5035209;28;20450;-75
2022/02/19 09:32:30;;;;;;;4.47;1.80;;;5.10;99.90;;;5.65;100.00;98283.50;5037533;28;20476;-74
2022/02/19 09:35:00;;;;;;;8.87;2.00;;;5.10;99.90;;;5.63;100.00;98283.66;5035263;28;20535;-75
2022/02/19 09:37:29;;;;;;;13.80;2.20;;;5.00;99.90;;;5.60;100.00;98289.13;5036983;28;20452;-75
2022/02/19 09:40:07;;;;;;;4.37;1.73;;;5.00;99.90;;;5.72;100.00;98290.53;5038802;28;20833;-75
2022/02/19 09:42:37;;;;;;;10.00;1.80;;;5.20;99.90;;;5.75;100.00;98297.22;5037054;28;20461;-75
2022/02/19 09:45:10;;;;;;;3.50;1.60;;;5.10;99.90;;;5.84;100.00;98298.88;5040233;28;20452;-75
2022/02/19 09:47:39;;;;;;;7.73;1.87;;;5.30;99.90;;;5.82;99.05;98290.44;5035259;28;20449;-75
2022/02/19 09:50:12;;;;;;;11.23;1.90;;;5.30;99.90;;;5.92;99.48;98298.97;5036556;28;20551;-75
2022/02/19 09:52:41;;;;;;;9.80;1.93;;;5.40;99.90;;;5.92;100.00;98298.97;5039215;28;20448;-75
2022/02/19 09:55:12;;;;;;;7.90;2.33;;;5.40;99.90;;;5.90;100.00;98295.75;5037571;28;20457;-75
2022/02/19 09:57:42;;;;;;;14.60;2.00;;;5.30;99.90;;;5.83;100.00;98289.50;5035449;28;20972;-75
2022/02/19 10:00:17;;;;;;;7.70;1.93;;;5.20;99.90;;;5.86;100.00;98297.00;5036140;28;20452;-75
2022/02/19 10:02:47;;;;;;;6.00;1.90;;;5.30;99.90;;;5.83;100.00;98297.28;5035352;28;20485;-75
2022/02/19 10:05:19;;;;;;;16.53;2.70;;;5.10;99.90;;;5.87;100.00;98302.03;5037430;28;20451;-75
2022/02/19 10:08:06;;;;;;;6.53;1.90;;;5.20;99.90;;;5.91;100.00;98307.72;5038723;28;20477;-74
2022/02/19 10:10:40;;;;;;;13.10;1.50;;;5.30;99.90;;;5.92;100.00;98310.19;5040902;28;20949;-75
2022/02/19 10:13:11;;;;;;;11.00;1.57;;;5.30;99.90;;;5.97;100.00;98309.75;5040029;28;20543;-75
2022/02/19 10:15:48;;;;;;;10.13;2.00;;;5.40;99.90;;;5.95;100.00;98324.63;5040267;28;20515;-75
2022/02/19 10:18:26;;;;;;;22.73;2.50;;;5.40;99.90;;;5.92;100.00;98324.94;5040559;28;20463;-75
2022/02/19 10:21:15;;;;;;;6.57;1.53;;;5.30;99.90;;;5.86;100.00;98325.53;5040364;28;20475;-75
2022/02/19 10:23:46;;;;;;;8.00;1.80;;;5.20;99.90;;;5.97;100.00;98322.72;5040181;28;20457;-75
2022/02/19 10:26:20;;;;;;;10.00;2.20;;;5.30;99.90;;;6.08;100.00;98319.84;5039938;28;20494;-75
2022/02/19 10:29:02;;;;;;;10.33;1.80;;;5.50;99.90;;;6.03;100.00;98327.28;5040944;28;20995;-75
2022/02/19 10:31:33;;;;;;;18.70;2.63;;;5.40;99.90;;;6.10;100.00;98322.31;5037353;28;20528;-75
2022/02/19 10:34:07;;;;;;;13.13;2.53;;;5.50;99.90;;;6.16;100.00;98317.31;5040085;28;20462;-75
2022/02/19 10:36:46;;;;;;;3.47;1.50;;;5.50;99.90;;;6.17;100.00;98318.97;5037884;28;20454;-75
2022/02/19 10:39:15;;;;;;;11.10;1.67;;;5.60;99.90;;;6.09;100.00;98318.91;5037877;28;20461;-75
2022/02/19 10:41:47;;;;;;;8.03;1.83;;;5.60;99.90;;;6.01;97.24;98318.81;5040338;28;20533;-75
2022/02/19 10:44:24;;;;;;;8.67;2.17;;;5.50;99.90;;;5.99;97.66;98315.59;5040350;28;20511;-75
2022/02/19 10:46:57;;;;;;;6.53;1.73;;;5.40;99.90;;;5.99;100.00;98323.38;5039146;28;20469;-75
2022/02/19 10:49:28;;;;;;;7.30;2.00;;;5.40;99.90;;;6.03;100.00;98312.53;5040356;28;20589;-75
2022/02/19 10:51:58;;;;;;;12.57;2.30;;;5.50;99.90;;;6.13;100.00;98309.84;5037922;28;20445;-75